createdAt,value
2022-09-29T00:00:54.569Z,59.62
2022-09-29T00:01:54.654Z,57.04
2022-09-29T00:02:54.583Z,56.88
2022-09-29T00:03:54.542Z,57.85
2022-09-29T00:04:54.543Z,57.69
2022-09-29T00:05:54.525Z,59.78
2022-09-29T00:06:54.527Z,59.78
2022-09-29T00:07:54.507Z,56.40
2022-09-29T00:08:54.496Z,58.81
2022-09-29T00:09:54.487Z,57.20
2022-09-29T00:10:54.482Z,58.17
2022-09-29T00:11:54.484Z,58.49
2022-09-29T00:12:54.461Z,57.85
2022-09-29T00:13:54.453Z,57.36
2022-09-29T00:14:54.448Z,58.33
2022-09-29T00:15:54.466Z,55.59
2022-09-29T00:16:54.443Z,56.88
2022-09-29T00:18:13.984Z,58.01
2022-09-29T00:18:56.414Z,55.59
2022-09-29T00:19:54.400Z,58.97
2022-09-29T00:20:54.395Z,58.49
2022-09-29T00:21:54.400Z,57.85
2022-09-29T00:22:54.379Z,56.88
2022-09-29T00:23:54.388Z,55.91
2022-09-29T00:24:54.358Z,59.78
2022-09-29T00:25:54.351Z,56.72
2022-09-29T00:26:54.352Z,59.62
2022-09-29T00:27:54.327Z,58.65
2022-09-29T00:28:54.324Z,57.69
2022-09-29T00:29:54.315Z,56.56
2022-09-29T00:30:54.304Z,58.81
2022-09-29T00:31:54.341Z,56.40
2022-09-29T00:32:54.288Z,54.95
2022-09-29T00:33:54.276Z,59.46
2022-09-29T00:34:54.271Z,60.10
2022-09-29T00:35:54.257Z,57.04
2022-09-29T00:36:54.263Z,58.81
2022-09-29T00:37:54.244Z,58.81
2022-09-29T00:38:54.250Z,59.78
2022-09-29T00:39:54.228Z,58.81
2022-09-29T00:40:54.254Z,56.40
2022-09-29T00:41:54.223Z,56.88
2022-09-29T00:42:54.199Z,59.14
2022-09-29T00:43:54.189Z,59.30
2022-09-29T00:44:54.177Z,55.43
2022-09-29T00:45:54.323Z,57.20
2022-09-29T00:46:54.174Z,58.01
2022-09-29T00:47:54.154Z,55.91
2022-09-29T00:48:54.148Z,54.14
2022-09-29T00:49:54.151Z,59.46
2022-09-29T00:50:54.126Z,57.85
2022-09-29T00:51:54.146Z,61.71
2022-09-29T00:52:54.114Z,58.81
2022-09-29T00:53:54.094Z,57.69
2022-09-29T00:54:54.085Z,54.14
2022-09-29T00:55:54.076Z,53.66
2022-09-29T00:56:54.081Z,58.01
2022-09-29T00:57:54.056Z,57.85
2022-09-29T00:58:54.049Z,56.24
2022-09-29T00:59:54.052Z,54.14
2022-09-29T01:00:54.070Z,57.36
2022-09-29T01:01:54.078Z,58.33
2022-09-29T01:02:54.016Z,57.36
2022-09-29T01:03:54.007Z,56.88
2022-09-29T01:04:53.999Z,57.85
2022-09-29T01:05:53.983Z,56.88
2022-09-29T01:06:53.990Z,57.36
2022-09-29T01:07:53.964Z,60.26
2022-09-29T01:08:54.020Z,56.88
2022-09-29T01:09:53.954Z,58.81
2022-09-29T01:10:53.948Z,57.04
2022-09-29T01:11:53.945Z,58.17
2022-09-29T01:12:53.924Z,58.17
2022-09-29T01:13:53.910Z,55.75
2022-09-29T01:14:53.905Z,57.69
2022-09-29T01:15:53.959Z,57.36
2022-09-29T01:16:53.899Z,57.36
2022-09-29T01:17:53.883Z,59.14
2022-09-29T01:18:53.867Z,59.94
2022-09-29T01:19:53.856Z,57.52
2022-09-29T01:20:53.848Z,58.81
2022-09-29T01:21:53.845Z,57.20
2022-09-29T01:22:53.832Z,58.17
2022-09-29T01:23:53.824Z,57.20
2022-09-29T01:24:53.811Z,55.27
2022-09-29T01:25:53.801Z,58.01
2022-09-29T01:26:53.809Z,57.85
2022-09-29T01:27:53.785Z,55.75
2022-09-29T01:28:53.770Z,57.69
2022-09-29T01:29:53.769Z,59.14
2022-09-29T01:30:53.752Z,54.95
2022-09-29T01:31:53.832Z,57.85
2022-09-29T01:32:53.735Z,58.81
2022-09-29T01:33:53.736Z,55.91
2022-09-29T01:34:53.720Z,55.91
2022-09-29T01:35:53.711Z,57.36
2022-09-29T01:36:53.713Z,56.07
2022-09-29T01:37:53.693Z,54.14
2022-09-29T01:38:53.688Z,54.46
2022-09-29T01:39:53.681Z,55.27
2022-09-29T01:40:53.814Z,56.40
2022-09-29T01:41:53.666Z,59.14
2022-09-29T01:42:53.642Z,57.36
2022-09-29T01:43:53.632Z,58.97
2022-09-29T01:44:53.624Z,57.36
2022-09-29T01:45:53.647Z,57.36
2022-09-29T01:46:53.613Z,57.20
2022-09-29T01:47:53.594Z,57.20
2022-09-29T01:48:53.584Z,51.72
2022-09-29T01:49:53.581Z,54.14
2022-09-29T01:50:53.566Z,54.62
2022-09-29T01:51:53.576Z,58.01
2022-09-29T01:52:53.550Z,61.39
2022-09-29T01:53:53.538Z,52.85
2022-09-29T01:54:53.529Z,58.81
2022-09-29T01:55:53.522Z,60.10
2022-09-29T01:56:53.523Z,57.36
2022-09-29T01:57:53.495Z,58.01
2022-09-29T01:58:54.498Z,57.20
2022-09-29T01:59:53.483Z,57.69
2022-09-29T02:00:53.566Z,56.88
2022-09-29T02:01:55.979Z,53.33
2022-09-29T02:02:53.457Z,57.20
2022-09-29T02:03:53.449Z,57.52
2022-09-29T02:04:53.443Z,55.11
2022-09-29T02:05:53.430Z,59.62
2022-09-29T02:06:53.437Z,58.01
2022-09-29T02:07:53.411Z,60.42
2022-09-29T02:08:53.407Z,57.69
2022-09-29T02:09:53.392Z,58.33
2022-09-29T02:10:53.382Z,59.30
2022-09-29T02:11:53.398Z,56.72
2022-09-29T02:12:53.372Z,56.07
2022-09-29T02:13:53.355Z,57.20
2022-09-29T02:14:53.346Z,57.69
2022-09-29T02:15:53.367Z,55.75
2022-09-29T02:16:53.336Z,56.72
2022-09-29T02:17:53.316Z,58.65
2022-09-29T02:18:58.152Z,57.69
2022-09-29T02:19:55.301Z,58.49
2022-09-29T02:20:53.288Z,58.81
2022-09-29T02:21:53.288Z,57.20
2022-09-29T02:22:53.267Z,57.04
2022-09-29T02:23:53.262Z,56.72
2022-09-29T02:24:53.253Z,58.81
2022-09-29T02:25:53.243Z,56.24
2022-09-29T02:26:53.254Z,55.75
2022-09-29T02:27:53.233Z,57.20
2022-09-29T02:28:53.237Z,57.85
2022-09-29T02:29:53.209Z,57.52
2022-09-29T02:30:53.199Z,56.24
2022-09-29T02:31:53.259Z,57.69
2022-09-29T02:32:53.176Z,56.72
2022-09-29T02:33:53.171Z,56.40
2022-09-29T02:34:53.161Z,57.20
2022-09-29T02:35:53.163Z,57.20
2022-09-29T02:36:53.151Z,57.52
2022-09-29T02:37:53.135Z,59.30
2022-09-29T02:38:53.123Z,58.33
2022-09-29T02:39:53.114Z,58.65
2022-09-29T02:40:53.123Z,60.10
2022-09-29T02:41:53.106Z,58.65
2022-09-29T02:42:53.085Z,56.88
2022-09-29T02:43:53.078Z,56.24
2022-09-29T02:44:53.073Z,56.24
2022-09-29T02:45:53.114Z,58.97
2022-09-29T02:46:53.056Z,57.69
2022-09-29T02:47:53.043Z,57.85
2022-09-29T02:48:53.034Z,57.52
2022-09-29T02:49:53.020Z,58.33
2022-09-29T02:50:53.016Z,58.65
2022-09-29T02:51:53.044Z,57.36
2022-09-29T02:52:52.994Z,59.46
2022-09-29T02:53:52.987Z,56.72
2022-09-29T02:54:52.980Z,57.52
2022-09-29T02:55:52.964Z,57.20
2022-09-29T02:56:52.965Z,57.69
2022-09-29T02:57:52.961Z,54.62
2022-09-29T02:58:52.943Z,55.75
2022-09-29T02:59:52.933Z,55.91
2022-09-29T03:00:52.975Z,56.88
2022-09-29T03:01:52.927Z,54.62
2022-09-29T03:02:52.906Z,55.43
2022-09-29T03:03:52.943Z,56.24
2022-09-29T03:04:52.886Z,55.59
2022-09-29T03:05:52.877Z,57.20
2022-09-29T03:06:52.880Z,56.07
2022-09-29T03:07:52.858Z,54.62
2022-09-29T03:08:52.853Z,56.24
2022-09-29T03:09:52.842Z,55.27
2022-09-29T03:10:52.831Z,56.56
2022-09-29T03:11:52.838Z,57.52
2022-09-29T03:12:52.816Z,56.40
2022-09-29T03:13:52.805Z,55.59
2022-09-29T03:14:52.797Z,56.88
2022-09-29T03:15:52.867Z,57.69
2022-09-29T03:16:52.791Z,56.56
2022-09-29T03:17:52.769Z,53.33
2022-09-29T03:18:52.762Z,56.07
2022-09-29T03:19:52.752Z,58.49
2022-09-29T03:20:52.739Z,58.01
2022-09-29T03:21:52.761Z,60.10
2022-09-29T03:22:52.723Z,60.42
2022-09-29T03:23:56.845Z,56.24
2022-09-29T03:24:53.698Z,57.20
2022-09-29T03:25:52.691Z,56.07
2022-09-29T03:26:52.698Z,56.40
2022-09-29T03:27:52.673Z,57.52
2022-09-29T03:28:52.677Z,56.72
2022-09-29T03:29:52.657Z,57.04
2022-09-29T03:30:52.649Z,58.33
2022-09-29T03:31:52.683Z,59.62
2022-09-29T03:32:52.625Z,57.52
2022-09-29T03:33:52.619Z,54.46
2022-09-29T03:34:52.608Z,55.27
2022-09-29T03:35:52.598Z,54.14
2022-09-29T03:36:52.592Z,56.56
2022-09-29T03:37:52.649Z,56.24
2022-09-29T03:38:52.573Z,56.56
2022-09-29T03:39:52.569Z,55.59
2022-09-29T03:40:52.641Z,57.20
2022-09-29T03:41:52.544Z,57.04
2022-09-29T03:42:52.548Z,55.59
2022-09-29T03:43:52.521Z,54.79
2022-09-29T03:44:52.514Z,57.85
2022-09-29T03:45:52.567Z,57.85
2022-09-29T03:46:52.494Z,58.81
2022-09-29T03:47:52.500Z,58.49
2022-09-29T03:48:52.482Z,58.81
2022-09-29T03:49:52.475Z,59.78
2022-09-29T03:50:52.471Z,57.04
2022-09-29T03:51:52.461Z,58.49
2022-09-29T03:52:52.459Z,57.69
2022-09-29T03:53:52.435Z,58.01
2022-09-29T03:54:52.426Z,58.97
2022-09-29T03:55:52.418Z,58.33
2022-09-29T03:56:52.410Z,56.72
2022-09-29T03:57:52.412Z,58.81
2022-09-29T03:58:52.394Z,59.94
2022-09-29T03:59:52.381Z,59.94
2022-09-29T04:00:52.402Z,58.65
2022-09-29T04:01:52.487Z,57.85
2022-09-29T04:02:52.365Z,59.62
2022-09-29T04:03:52.354Z,58.17
2022-09-29T04:04:52.338Z,59.30
2022-09-29T04:05:52.326Z,60.59
2022-09-29T04:06:52.314Z,61.23
2022-09-29T04:07:52.319Z,58.65
2022-09-29T04:08:52.300Z,57.85
2022-09-29T04:09:52.282Z,57.04
2022-09-29T04:10:52.282Z,57.85
2022-09-29T04:11:52.273Z,56.72
2022-09-29T04:12:52.282Z,56.24
2022-09-29T04:13:52.254Z,55.59
2022-09-29T04:14:52.241Z,57.52
2022-09-29T04:15:52.235Z,57.04
2022-09-29T04:16:52.228Z,56.72
2022-09-29T04:17:52.223Z,54.14
2022-09-29T04:18:52.208Z,57.20
2022-09-29T04:19:52.197Z,56.24
2022-09-29T04:20:52.185Z,56.56
2022-09-29T04:21:52.173Z,56.24
2022-09-29T04:22:52.176Z,56.72
2022-09-29T04:23:52.158Z,55.75
2022-09-29T04:24:52.159Z,54.79
2022-09-29T04:25:52.140Z,56.24
2022-09-29T04:26:52.133Z,56.56
2022-09-29T04:27:52.131Z,54.46
2022-09-29T04:28:52.110Z,57.20
2022-09-29T04:29:52.101Z,55.75
2022-09-29T04:30:52.095Z,56.72
2022-09-29T04:31:52.151Z,57.52
2022-09-29T04:32:52.093Z,56.88
2022-09-29T04:33:52.064Z,58.17
2022-09-29T04:34:52.058Z,58.49
2022-09-29T04:35:52.048Z,57.69
2022-09-29T04:36:52.032Z,58.01
2022-09-29T04:37:52.035Z,58.49
2022-09-29T04:38:52.021Z,56.24
2022-09-29T04:39:52.012Z,57.36
2022-09-29T04:40:52.037Z,58.17
2022-09-29T04:41:51.996Z,58.01
2022-09-29T04:42:51.996Z,57.85
2022-09-29T04:43:51.978Z,58.81
2022-09-29T04:44:51.967Z,55.75
2022-09-29T04:45:52.006Z,57.20
2022-09-29T04:46:51.950Z,57.04
2022-09-29T04:47:51.963Z,56.24
2022-09-29T04:48:51.935Z,56.72
2022-09-29T04:49:51.917Z,56.72
2022-09-29T04:50:52.920Z,56.40
2022-09-29T04:51:51.919Z,58.81
2022-09-29T04:52:51.914Z,57.52
2022-09-29T04:53:51.901Z,57.69
2022-09-29T04:54:51.882Z,58.01
2022-09-29T04:55:51.874Z,58.49
2022-09-29T04:56:51.862Z,57.85
2022-09-29T04:57:51.868Z,57.52
2022-09-29T04:58:51.843Z,56.56
2022-09-29T04:59:51.834Z,57.52
2022-09-29T05:00:51.911Z,56.72
2022-09-29T05:01:51.845Z,56.24
2022-09-29T05:02:51.818Z,55.59
2022-09-29T05:03:51.800Z,55.11
2022-09-29T05:04:51.810Z,55.59
2022-09-29T05:05:51.783Z,57.36
2022-09-29T05:06:51.772Z,56.40
2022-09-29T05:07:51.784Z,55.43
2022-09-29T05:08:51.754Z,56.24
2022-09-29T05:09:51.747Z,56.40
2022-09-29T05:10:51.735Z,56.72
2022-09-29T05:11:51.738Z,56.24
2022-09-29T05:12:51.729Z,56.24
2022-09-29T05:13:51.708Z,54.95
2022-09-29T05:14:51.704Z,56.24
2022-09-29T05:15:51.690Z,55.27
2022-09-29T05:16:51.678Z,56.88
2022-09-29T05:17:51.729Z,54.79
2022-09-29T05:18:51.690Z,57.52
2022-09-29T05:19:51.663Z,56.07
2022-09-29T05:21:15.809Z,57.52
2022-09-29T05:21:53.636Z,58.33
2022-09-29T05:22:51.642Z,57.20
2022-09-29T05:23:51.615Z,56.88
2022-09-29T05:24:51.611Z,57.85
2022-09-29T05:25:51.596Z,55.75
2022-09-29T05:26:56.133Z,56.88
2022-09-29T05:27:53.590Z,57.52
2022-09-29T05:28:51.571Z,57.04
2022-09-29T05:29:51.562Z,57.85
2022-09-29T05:30:51.557Z,56.72
2022-09-29T05:31:51.573Z,59.30
2022-09-29T05:32:55.648Z,58.65
2022-09-29T05:33:52.531Z,59.94
2022-09-29T05:34:51.541Z,60.91
2022-09-29T05:35:51.511Z,57.85
2022-09-29T05:36:51.513Z,58.65
2022-09-29T05:37:51.505Z,60.26
2022-09-29T05:38:51.486Z,59.14
2022-09-29T05:39:51.475Z,59.62
2022-09-29T05:40:51.519Z,56.88
2022-09-29T05:41:51.456Z,57.20
2022-09-29T05:42:51.457Z,57.52
2022-09-29T05:43:51.443Z,56.07
2022-09-29T05:44:51.432Z,57.52
2022-09-29T05:45:51.439Z,59.30
2022-09-29T05:46:51.413Z,58.17
2022-09-29T05:47:51.414Z,59.62
2022-09-29T05:48:51.451Z,57.85
2022-09-29T05:49:51.381Z,57.85
2022-09-29T05:50:51.372Z,58.17
2022-09-29T05:51:51.368Z,57.85
2022-09-29T05:52:51.363Z,58.49
2022-09-29T05:53:51.342Z,58.81
2022-09-29T05:54:51.334Z,59.14
2022-09-29T05:55:51.326Z,57.36
2022-09-29T05:56:51.327Z,58.01
2022-09-29T05:57:51.324Z,57.69
2022-09-29T05:58:51.300Z,58.81
2022-09-29T05:59:51.290Z,57.52
2022-09-29T06:00:51.316Z,57.85
2022-09-29T06:01:51.307Z,57.52
2022-09-29T06:02:51.282Z,56.88
2022-09-29T06:03:51.253Z,56.24
2022-09-29T06:04:51.245Z,57.20
2022-09-29T06:05:51.236Z,56.88
2022-09-29T06:06:51.222Z,56.72
2022-09-29T06:07:52.227Z,56.40
2022-09-29T06:08:51.210Z,55.91
2022-09-29T06:09:51.202Z,56.40
2022-09-29T06:10:51.193Z,57.04
2022-09-29T06:11:51.188Z,55.27
2022-09-29T06:12:51.188Z,56.72
2022-09-29T06:13:51.160Z,56.40
2022-09-29T06:14:51.155Z,54.62
2022-09-29T06:15:51.144Z,57.20
2022-09-29T06:16:51.181Z,57.52
2022-09-29T06:17:51.140Z,59.46
2022-09-29T06:18:51.117Z,60.42
2022-09-29T06:19:51.111Z,59.62
2022-09-29T06:20:51.100Z,58.49
2022-09-29T06:21:51.090Z,59.78
2022-09-29T06:22:51.092Z,59.78
2022-09-29T06:23:51.079Z,58.81
2022-09-29T06:24:51.061Z,58.81
2022-09-29T06:25:51.054Z,58.49
2022-09-29T06:26:51.039Z,58.49
2022-09-29T06:27:51.041Z,59.30
2022-09-29T06:28:51.044Z,58.17
2022-09-29T06:29:51.013Z,57.85
2022-09-29T06:30:51.005Z,58.17
2022-09-29T06:31:51.050Z,58.49
2022-09-29T06:32:50.988Z,58.97
2022-09-29T06:33:51.982Z,60.10
2022-09-29T06:34:50.973Z,59.30
2022-09-29T06:35:50.961Z,58.49
2022-09-29T06:36:50.946Z,59.78
2022-09-29T06:37:50.950Z,59.30
2022-09-29T06:38:50.928Z,59.78
2022-09-29T06:39:50.918Z,58.17
2022-09-29T06:40:51.042Z,59.46
2022-09-29T06:41:50.902Z,59.14
2022-09-29T06:42:50.904Z,59.78
2022-09-29T06:43:50.882Z,58.49
2022-09-29T06:44:50.876Z,57.20
2022-09-29T06:45:50.908Z,56.56
2022-09-29T06:46:50.862Z,57.85
2022-09-29T06:47:50.866Z,58.65
2022-09-29T06:48:50.854Z,56.24
2022-09-29T06:49:56.868Z,57.69
2022-09-29T06:51:04.707Z,57.20
2022-09-29T06:51:52.818Z,57.85
2022-09-29T06:53:03.234Z,57.20
2022-09-29T06:54:00.384Z,57.04
2022-09-29T06:54:51.781Z,57.04
2022-09-29T06:55:50.777Z,55.91
2022-09-29T06:56:50.769Z,56.24
2022-09-29T06:57:50.771Z,56.24
2022-09-29T06:58:50.750Z,54.95
2022-09-29T06:59:50.737Z,54.79
2022-09-29T07:00:51.008Z,55.91
2022-09-29T07:01:51.673Z,53.98
2022-09-29T07:02:50.719Z,56.24
2022-09-29T07:03:50.700Z,56.07
2022-09-29T07:04:50.691Z,54.79
2022-09-29T07:06:15.247Z,54.95
2022-09-29T07:06:52.676Z,55.43
2022-09-29T07:07:52.706Z,55.75
2022-09-29T07:08:51.650Z,52.37
2022-09-29T07:09:50.633Z,56.56
2022-09-29T07:10:51.631Z,55.59
2022-09-29T07:11:50.631Z,56.56
2022-09-29T07:12:50.622Z,55.43
2022-09-29T07:13:54.240Z,56.72
2022-09-29T07:14:51.592Z,57.04
2022-09-29T07:15:50.583Z,57.69
2022-09-29T07:16:50.670Z,57.52
2022-09-29T07:17:50.581Z,55.75
2022-09-29T07:18:50.551Z,56.88
2022-09-29T07:19:50.553Z,56.40
2022-09-29T07:20:50.528Z,57.36
2022-09-29T07:21:50.524Z,56.72
2022-09-29T07:22:50.530Z,55.43
2022-09-29T07:23:50.510Z,55.91
2022-09-29T07:24:50.498Z,54.46
2022-09-29T07:25:52.380Z,55.11
2022-09-29T07:26:51.480Z,55.91
2022-09-29T07:27:50.496Z,56.72
2022-09-29T07:28:50.463Z,54.30
2022-09-29T07:30:01.291Z,54.62
2022-09-29T07:30:53.024Z,56.40
2022-09-29T07:31:52.369Z,55.43
2022-09-29T07:33:00.703Z,57.04
2022-09-29T07:33:52.420Z,55.11
2022-09-29T07:34:50.408Z,55.27
2022-09-29T07:35:50.403Z,54.62
2022-09-29T07:36:50.395Z,54.46
2022-09-29T07:37:50.383Z,53.50
2022-09-29T07:38:50.385Z,55.27
2022-09-29T07:39:50.363Z,54.62
2022-09-29T07:40:50.426Z,53.66
2022-09-29T07:41:50.349Z,52.69
2022-09-29T07:42:50.356Z,56.24
2022-09-29T07:43:50.329Z,53.33
2022-09-29T07:44:52.488Z,54.14
2022-09-29T07:45:51.366Z,54.95
2022-09-29T07:46:50.319Z,53.50
2022-09-29T07:47:50.291Z,55.11
2022-09-29T07:48:50.316Z,55.27
2022-09-29T07:49:51.278Z,55.43
2022-09-29T07:50:50.272Z,54.62
2022-09-29T07:51:50.259Z,53.66
2022-09-29T07:52:50.268Z,55.43
2022-09-29T07:53:50.240Z,55.27
2022-09-29T07:54:50.235Z,53.66
2022-09-29T07:55:50.219Z,54.14
2022-09-29T07:56:50.209Z,54.62
2022-09-29T07:57:50.204Z,52.21
2022-09-29T07:58:50.206Z,56.24
2022-09-29T07:59:53.354Z,56.24
2022-09-29T08:00:51.233Z,54.79
2022-09-29T08:01:50.241Z,56.07
2022-09-29T08:02:50.156Z,56.07
2022-09-29T08:03:50.160Z,56.56
2022-09-29T08:04:50.144Z,56.40
2022-09-29T08:05:50.128Z,56.88
2022-09-29T08:06:50.115Z,56.88
2022-09-29T08:07:50.119Z,54.79
2022-09-29T08:09:02.890Z,57.69
2022-09-29T08:09:52.089Z,55.91
2022-09-29T08:10:53.720Z,54.79
2022-09-29T08:11:59.814Z,54.62
2022-09-29T08:12:52.069Z,53.66
2022-09-29T08:13:50.046Z,53.66
2022-09-29T08:14:50.040Z,57.85
2022-09-29T08:15:50.032Z,54.62
2022-09-29T08:16:50.066Z,56.56
2022-09-29T08:17:50.024Z,55.11
2022-09-29T08:18:49.995Z,55.43
2022-09-29T08:19:49.985Z,54.79
2022-09-29T08:20:49.976Z,54.62
2022-09-29T08:21:49.964Z,54.30
2022-09-29T08:22:49.976Z,56.56
2022-09-29T08:23:49.945Z,55.27
2022-09-29T08:24:49.938Z,55.11
2022-09-29T08:25:58.015Z,54.79
2022-09-29T08:26:51.921Z,55.11
2022-09-29T08:27:55.318Z,54.14
2022-09-29T08:29:03.955Z,54.46
2022-09-29T08:29:51.878Z,54.79
2022-09-29T08:30:50.878Z,54.79
2022-09-29T08:31:49.888Z,56.24
2022-09-29T08:32:49.869Z,54.46
2022-09-29T08:33:49.865Z,54.46
2022-09-29T08:34:49.849Z,55.27
2022-09-29T08:35:49.825Z,52.21
2022-09-29T08:36:49.813Z,53.33
2022-09-29T08:37:49.816Z,55.11
2022-09-29T08:38:49.802Z,54.95
2022-09-29T08:39:49.785Z,54.30
2022-09-29T08:40:49.794Z,53.33
2022-09-29T08:41:49.764Z,54.95
2022-09-29T08:42:49.771Z,54.79
2022-09-29T08:43:49.742Z,54.62
2022-09-29T08:44:49.729Z,53.66
2022-09-29T08:45:59.085Z,54.79
2022-09-29T08:47:02.655Z,54.14
2022-09-29T08:47:51.762Z,53.98
2022-09-29T08:48:57.541Z,54.95
2022-09-29T08:49:51.687Z,53.98
2022-09-29T08:50:49.673Z,53.66
2022-09-29T08:51:49.673Z,54.46
2022-09-29T08:52:52.634Z,55.27
2022-09-29T08:54:01.989Z,55.43
2022-09-29T08:54:51.910Z,55.27
2022-09-29T08:55:49.634Z,53.33
2022-09-29T08:56:49.627Z,54.79
2022-09-29T08:57:49.621Z,54.46
2022-09-29T08:58:49.607Z,54.46
2022-09-29T08:59:49.593Z,54.62
2022-09-29T09:00:49.652Z,54.14
2022-09-29T09:01:49.569Z,54.95
2022-09-29T09:02:53.211Z,53.50
2022-09-29T09:03:51.554Z,54.62
2022-09-29T09:04:49.554Z,55.27
2022-09-29T09:05:49.534Z,53.98
2022-09-29T09:06:49.529Z,54.46
2022-09-29T09:07:49.526Z,54.95
2022-09-29T09:08:49.598Z,54.14
2022-09-29T09:09:49.497Z,53.50
2022-09-29T09:10:49.485Z,53.01
2022-09-29T09:11:49.479Z,54.14
2022-09-29T09:12:49.475Z,54.46
2022-09-29T09:13:49.457Z,54.79
2022-09-29T09:14:49.446Z,56.07
2022-09-29T09:15:49.434Z,56.24
2022-09-29T09:16:49.480Z,55.75
2022-09-29T09:17:49.428Z,56.88
2022-09-29T09:18:49.430Z,55.27
2022-09-29T09:19:49.403Z,54.30
2022-09-29T09:20:49.384Z,54.79
2022-09-29T09:21:49.378Z,54.95
2022-09-29T09:22:49.382Z,54.30
2022-09-29T09:23:49.373Z,56.07
2022-09-29T09:24:49.344Z,55.11
2022-09-29T09:25:49.335Z,55.11
2022-09-29T09:26:49.330Z,54.62
2022-09-29T09:27:49.325Z,56.56
2022-09-29T09:28:49.309Z,54.14
2022-09-29T09:29:49.298Z,55.27
2022-09-29T09:30:49.352Z,56.40
2022-09-29T09:31:49.279Z,53.33
2022-09-29T09:32:49.268Z,54.79
2022-09-29T09:34:01.832Z,57.04
2022-09-29T09:34:51.250Z,55.43
2022-09-29T09:35:57.641Z,58.01
2022-09-29T09:37:02.603Z,54.30
2022-09-29T09:37:51.228Z,53.17
2022-09-29T09:38:49.208Z,57.52
2022-09-29T09:39:49.190Z,57.36
2022-09-29T09:40:49.187Z,54.30
2022-09-29T09:41:49.175Z,52.37
2022-09-29T09:42:49.177Z,56.72
2022-09-29T09:43:49.151Z,56.07
2022-09-29T09:44:49.142Z,57.36
2022-09-29T09:45:49.174Z,55.27
2022-09-29T09:46:49.125Z,56.56
2022-09-29T09:47:49.128Z,56.40
2022-09-29T09:48:49.106Z,55.11
2022-09-29T09:49:49.096Z,55.27
2022-09-29T09:50:49.084Z,54.30
2022-09-29T09:51:49.069Z,55.27
2022-09-29T09:52:49.077Z,55.75
2022-09-29T09:53:49.072Z,58.33
2022-09-29T09:54:49.058Z,55.27
2022-09-29T09:55:49.031Z,55.27
2022-09-29T09:56:49.073Z,55.43
2022-09-29T09:57:49.011Z,55.59
2022-09-29T09:58:49.014Z,56.40
2022-09-29T09:59:48.986Z,55.27
2022-09-29T10:00:49.007Z,54.95
2022-09-29T10:01:49.005Z,53.66
2022-09-29T10:02:49.030Z,56.24
2022-09-29T10:03:48.952Z,55.27
2022-09-29T10:04:48.941Z,57.20
2022-09-29T10:05:48.929Z,53.17
2022-09-29T10:06:48.921Z,53.01
2022-09-29T10:07:48.912Z,52.53
2022-09-29T10:08:48.918Z,56.72
2022-09-29T10:09:48.968Z,55.11
2022-09-29T10:10:57.965Z,53.17
2022-09-29T10:11:50.871Z,54.14
2022-09-29T10:12:48.873Z,54.79
2022-09-29T10:13:48.857Z,55.27
2022-09-29T10:14:48.837Z,55.27
2022-09-29T10:15:49.833Z,55.27
2022-09-29T10:16:49.021Z,56.07
2022-09-29T10:17:48.812Z,56.07
2022-09-29T10:18:48.818Z,57.20
2022-09-29T10:19:48.796Z,55.59
2022-09-29T10:20:48.785Z,55.75
2022-09-29T10:21:48.776Z,54.79
2022-09-29T10:22:51.722Z,54.46
2022-09-29T10:23:48.768Z,56.24
2022-09-29T10:24:48.748Z,56.88
2022-09-29T10:25:48.733Z,55.59
2022-09-29T10:26:48.727Z,54.30
2022-09-29T10:27:48.716Z,54.62
2022-09-29T10:28:48.713Z,54.46
2022-09-29T10:29:48.689Z,54.46
2022-09-29T10:30:48.751Z,56.07
2022-09-29T10:31:48.677Z,56.24
2022-09-29T10:32:48.660Z,54.79
2022-09-29T10:33:48.666Z,55.43
2022-09-29T10:34:48.659Z,54.95
2022-09-29T10:35:48.628Z,56.07
2022-09-29T10:36:48.615Z,53.33
2022-09-29T10:37:48.611Z,54.62
2022-09-29T10:38:48.605Z,54.14
2022-09-29T10:39:48.595Z,55.75
2022-09-29T10:40:48.573Z,55.59
2022-09-29T10:41:48.564Z,56.40
2022-09-29T10:42:48.550Z,54.62
2022-09-29T10:43:48.550Z,55.11
2022-09-29T10:44:48.529Z,54.62
2022-09-29T10:45:48.590Z,54.79
2022-09-29T10:46:48.513Z,55.59
2022-09-29T10:47:48.501Z,54.62
2022-09-29T10:48:48.501Z,54.79
2022-09-29T10:49:48.502Z,55.43
2022-09-29T10:50:48.519Z,55.27
2022-09-29T10:51:48.464Z,54.79
2022-09-29T10:52:48.448Z,54.95
2022-09-29T10:53:48.451Z,54.30
2022-09-29T10:54:48.425Z,56.24
2022-09-29T10:55:48.437Z,54.95
2022-09-29T10:56:48.403Z,54.79
2022-09-29T10:57:48.404Z,53.66
2022-09-29T10:59:06.073Z,56.24
2022-09-29T10:59:50.383Z,55.43
2022-09-29T11:00:48.368Z,57.85
2022-09-29T11:01:48.360Z,56.56
2022-09-29T11:02:48.345Z,56.07
2022-09-29T11:03:48.403Z,56.40
2022-09-29T11:04:48.324Z,55.75
2022-09-29T11:05:48.315Z,59.14
2022-09-29T11:06:48.303Z,55.75
2022-09-29T11:07:48.291Z,56.07
2022-09-29T11:08:48.335Z,56.88
2022-09-29T11:09:48.310Z,58.17
2022-09-29T11:10:48.265Z,57.04
2022-09-29T11:11:48.256Z,57.04
2022-09-29T11:12:48.247Z,57.52
2022-09-29T11:13:48.244Z,54.95
2022-09-29T11:14:48.226Z,58.33
2022-09-29T11:15:48.213Z,57.04
2022-09-29T11:16:48.233Z,57.85
2022-09-29T11:17:48.195Z,56.88
2022-09-29T11:18:48.207Z,57.20
2022-09-29T11:19:48.173Z,57.69
2022-09-29T11:20:48.160Z,57.85
2022-09-29T11:21:48.149Z,57.69
2022-09-29T11:22:48.139Z,58.17
2022-09-29T11:23:48.140Z,58.49
2022-09-29T11:24:48.114Z,57.52
2022-09-29T11:25:48.103Z,58.33
2022-09-29T11:26:49.099Z,57.85
2022-09-29T11:27:48.091Z,59.46
2022-09-29T11:28:48.093Z,57.04
2022-09-29T11:29:48.065Z,56.72
2022-09-29T11:30:48.171Z,58.49
2022-09-29T11:31:48.056Z,56.40
2022-09-29T11:32:48.042Z,56.24
2022-09-29T11:33:48.040Z,59.46
2022-09-29T11:34:48.043Z,58.97
2022-09-29T11:35:48.019Z,59.46
2022-09-29T11:36:48.057Z,59.94
2022-09-29T11:37:47.993Z,60.42
2022-09-29T11:38:48.009Z,57.36
2022-09-29T11:39:47.970Z,57.04
2022-09-29T11:40:47.962Z,57.52
2022-09-29T11:41:47.953Z,58.97
2022-09-29T11:42:47.941Z,57.85
2022-09-29T11:43:47.956Z,57.04
2022-09-29T11:44:47.920Z,57.04
2022-09-29T11:45:47.953Z,56.56
2022-09-29T11:46:47.908Z,58.97
2022-09-29T11:47:47.896Z,60.42
2022-09-29T11:48:47.888Z,60.10
2022-09-29T11:49:47.875Z,57.85
2022-09-29T11:50:47.864Z,60.42
2022-09-29T11:51:47.853Z,60.10
2022-09-29T11:52:47.844Z,60.42
2022-09-29T11:53:47.839Z,60.26
2022-09-29T11:54:47.823Z,60.75
2022-09-29T11:55:47.816Z,59.94
2022-09-29T11:56:47.803Z,59.30
2022-09-29T11:57:47.792Z,60.75
2022-09-29T11:58:47.797Z,60.42
2022-09-29T11:59:47.772Z,60.26
2022-09-29T12:00:47.764Z,60.91
2022-09-29T12:01:47.749Z,60.75
2022-09-29T12:02:47.973Z,62.20
2022-09-29T12:03:47.747Z,62.04
2022-09-29T12:04:47.835Z,60.91
2022-09-29T12:05:47.707Z,61.23
2022-09-29T12:06:47.699Z,58.65
2022-09-29T12:07:47.707Z,60.91
2022-09-29T12:08:47.692Z,60.75
2022-09-29T12:09:47.670Z,59.94
2022-09-29T12:10:47.676Z,59.46
2022-09-29T12:12:05.205Z,61.71
2022-09-29T12:13:47.646Z,59.94
2022-09-29T12:14:47.620Z,61.39
2022-09-29T12:15:47.609Z,62.52
2022-09-29T12:16:47.684Z,63.16
2022-09-29T12:17:47.592Z,61.55
2022-09-29T12:18:47.591Z,60.75
2022-09-29T12:19:47.601Z,61.55
2022-09-29T12:20:47.559Z,62.68
2022-09-29T12:21:47.544Z,59.94
2022-09-29T12:22:47.534Z,61.39
2022-09-29T12:23:47.537Z,60.75
2022-09-29T12:24:47.521Z,62.52
2022-09-29T12:25:47.507Z,62.84
2022-09-29T12:26:47.498Z,62.52
2022-09-29T12:27:47.489Z,60.10
2022-09-29T12:28:47.499Z,61.87
2022-09-29T12:29:47.474Z,59.30
2022-09-29T12:30:47.531Z,56.40
2022-09-29T12:31:47.449Z,59.30
2022-09-29T12:32:47.438Z,61.55
2022-09-29T12:33:47.442Z,59.94
2022-09-29T12:34:47.417Z,58.33
2022-09-29T12:35:47.409Z,62.20
2022-09-29T12:36:47.397Z,62.84
2022-09-29T12:37:47.387Z,61.23
2022-09-29T12:38:47.389Z,58.17
2022-09-29T12:39:47.407Z,55.59
2022-09-29T12:40:47.355Z,56.07
2022-09-29T12:41:47.350Z,57.36
2022-09-29T12:42:47.335Z,59.14
2022-09-29T12:43:47.334Z,61.71
2022-09-29T12:44:47.317Z,63.65
2022-09-29T12:45:47.404Z,63.49
2022-09-29T12:46:47.382Z,63.81
2022-09-29T12:47:47.282Z,65.10
2022-09-29T12:48:47.287Z,63.97
2022-09-29T12:49:47.265Z,63.16
2022-09-29T12:50:47.258Z,60.26
2022-09-29T12:51:47.305Z,60.75
2022-09-29T12:52:47.232Z,64.13
2022-09-29T12:53:47.382Z,65.10